createdAt,value
2022-10-17T00:00:36.441Z,80.71
2022-10-17T00:01:36.513Z,81.01
2022-10-17T00:02:36.419Z,80.60
2022-10-17T00:03:36.401Z,80.95
2022-10-17T00:04:36.412Z,81.22
2022-10-17T00:05:36.460Z,80.91
2022-10-17T00:06:36.372Z,80.85
2022-10-17T00:07:36.360Z,80.91
2022-10-17T00:08:36.351Z,80.54
2022-10-17T00:09:36.340Z,80.60
2022-10-17T00:10:36.329Z,80.60
2022-10-17T00:11:36.386Z,80.60
2022-10-17T00:12:36.327Z,79.89
2022-10-17T00:13:36.301Z,79.99
2022-10-17T00:14:36.280Z,79.68
2022-10-17T00:15:36.265Z,80.19
2022-10-17T00:16:36.260Z,80.51
2022-10-17T00:17:36.261Z,80.60
2022-10-17T00:18:36.300Z,80.81
2022-10-17T00:19:36.265Z,81.22
2022-10-17T00:20:36.215Z,81.22
2022-10-17T00:21:36.205Z,80.95
2022-10-17T00:23:36.190Z,81.26
2022-10-17T00:24:36.174Z,81.26
2022-10-17T00:25:36.178Z,80.74
2022-10-17T00:26:36.214Z,80.95
2022-10-17T00:27:36.137Z,80.91
2022-10-17T00:28:36.187Z,80.91
2022-10-17T00:29:36.161Z,81.05
2022-10-17T00:30:36.105Z,81.15
2022-10-17T00:31:36.178Z,81.05
2022-10-17T00:32:36.086Z,81.01
2022-10-17T00:33:36.071Z,81.12
2022-10-17T00:34:36.060Z,81.46
2022-10-17T00:35:36.051Z,81.36
2022-10-17T00:36:36.051Z,81.36
2022-10-17T00:37:36.094Z,81.36
2022-10-17T00:38:36.013Z,81.26
2022-10-17T00:39:36.005Z,81.22
2022-10-17T00:40:36.007Z,81.26
2022-10-17T00:41:36.103Z,81.43
2022-10-17T00:42:35.975Z,81.32
2022-10-17T00:43:36.019Z,81.77
2022-10-17T00:44:35.975Z,81.77
2022-10-17T00:45:35.938Z,81.46
2022-10-17T00:46:35.934Z,81.36
2022-10-17T00:47:35.933Z,81.87
2022-10-17T00:48:35.909Z,81.26
2022-10-17T00:49:35.959Z,80.81
2022-10-17T00:50:35.888Z,81.15
2022-10-17T00:51:35.875Z,81.36
2022-10-17T00:52:35.878Z,81.15
2022-10-17T00:53:35.855Z,80.74
2022-10-17T00:54:35.868Z,81.15
2022-10-17T00:55:35.846Z,80.95
2022-10-17T00:56:35.825Z,81.57
2022-10-17T00:57:35.827Z,81.57
2022-10-17T00:58:35.801Z,81.36
2022-10-17T00:59:35.796Z,80.85
2022-10-17T01:00:35.805Z,81.12
2022-10-17T01:01:35.856Z,82.39
2022-10-17T01:02:35.767Z,81.26
2022-10-17T01:03:35.747Z,81.46
2022-10-17T01:04:35.734Z,81.26
2022-10-17T01:05:35.726Z,81.57
2022-10-17T01:06:35.719Z,81.36
2022-10-17T01:07:37.226Z,81.26
2022-10-17T01:08:35.693Z,81.05
2022-10-17T01:09:35.908Z,81.26
2022-10-17T01:10:35.673Z,80.85
2022-10-17T01:11:35.663Z,81.05
2022-10-17T01:12:35.646Z,81.26
2022-10-17T01:13:35.649Z,80.95
2022-10-17T01:14:35.629Z,81.46
2022-10-17T01:15:35.629Z,81.26
2022-10-17T01:16:35.631Z,81.36
2022-10-17T01:17:35.597Z,81.77
2022-10-17T01:18:35.583Z,81.87
2022-10-17T01:19:35.604Z,82.39
2022-10-17T01:20:35.575Z,82.08
2022-10-17T01:21:35.554Z,81.87
2022-10-17T01:22:35.542Z,82.08
2022-10-17T01:23:35.531Z,81.98
2022-10-17T01:24:35.520Z,81.87
2022-10-17T01:25:35.599Z,81.87
2022-10-17T01:26:35.499Z,81.87
2022-10-17T01:27:35.491Z,82.08
2022-10-17T01:28:35.617Z,81.87
2022-10-17T01:29:35.467Z,81.67
2022-10-17T01:30:35.471Z,81.05
2022-10-17T01:31:35.534Z,81.05
2022-10-17T01:32:35.462Z,81.26
2022-10-17T01:33:35.427Z,81.36
2022-10-17T01:34:35.416Z,81.36
2022-10-17T01:35:35.404Z,82.39
2022-10-17T01:36:35.501Z,82.69
2022-10-17T01:37:35.391Z,81.87
2022-10-17T01:38:35.368Z,81.46
2022-10-17T01:39:36.980Z,81.98
2022-10-17T01:40:35.348Z,81.98
2022-10-17T01:41:35.341Z,82.08
2022-10-17T01:42:35.343Z,81.36
2022-10-17T01:43:35.382Z,81.05
2022-10-17T01:44:35.307Z,81.57
2022-10-17T01:45:35.299Z,82.42
2022-10-17T01:46:35.289Z,81.67
2022-10-17T01:47:35.286Z,81.98
2022-10-17T01:48:35.293Z,81.36
2022-10-17T01:49:35.326Z,82.39
2022-10-17T01:50:35.242Z,81.71
2022-10-17T01:51:35.238Z,81.05
2022-10-17T01:52:35.317Z,81.29
2022-10-17T01:53:35.219Z,81.29
2022-10-17T01:54:35.196Z,81.40
2022-10-17T01:55:35.218Z,81.20
2022-10-17T01:56:35.179Z,80.78
2022-10-17T01:57:35.170Z,80.58
2022-10-17T01:58:35.167Z,80.58
2022-10-17T01:59:35.151Z,81.20
2022-10-17T02:00:35.169Z,81.29
2022-10-17T02:01:35.264Z,81.20
2022-10-17T02:02:35.111Z,80.99
2022-10-17T02:03:35.104Z,80.88
2022-10-17T02:04:35.132Z,80.58
2022-10-17T02:05:35.083Z,81.09
2022-10-17T02:06:35.071Z,81.60
2022-10-17T02:07:35.093Z,81.91
2022-10-17T02:08:35.051Z,81.91
2022-10-17T02:09:35.051Z,81.74
2022-10-17T02:10:35.085Z,81.54
2022-10-17T02:11:35.019Z,81.64
2022-10-17T02:12:35.008Z,81.60
2022-10-17T02:13:34.998Z,82.56
2022-10-17T02:14:35.070Z,82.22
2022-10-17T02:15:34.974Z,82.15
2022-10-17T02:16:34.972Z,82.67
2022-10-17T02:17:35.066Z,82.26
2022-10-17T02:18:34.941Z,82.36
2022-10-17T02:19:34.938Z,81.95
2022-10-17T02:20:34.967Z,82.15
2022-10-17T02:21:34.908Z,82.15
2022-10-17T02:22:34.895Z,81.74
2022-10-17T02:23:34.900Z,81.95
2022-10-17T02:24:34.873Z,82.15
2022-10-17T02:25:34.861Z,81.50
2022-10-17T02:26:34.906Z,81.43
2022-10-17T02:27:34.851Z,81.13
2022-10-17T02:28:35.033Z,81.54
2022-10-17T02:29:34.834Z,81.23
2022-10-17T02:30:34.808Z,82.26
2022-10-17T02:31:34.804Z,81.54
2022-10-17T02:32:34.884Z,82.77
2022-10-17T02:33:34.777Z,82.46
2022-10-17T02:34:34.775Z,81.95
2022-10-17T02:35:34.754Z,81.64
2022-10-17T02:36:34.770Z,81.95
2022-10-17T02:37:34.733Z,81.02
2022-10-17T02:38:34.763Z,82.26
2022-10-17T02:39:34.722Z,82.15
2022-10-17T02:40:34.700Z,81.50
2022-10-17T02:41:34.696Z,81.64
2022-10-17T02:42:34.678Z,81.81
2022-10-17T02:43:34.669Z,81.81
2022-10-17T02:44:34.742Z,82.67
2022-10-17T02:45:34.672Z,82.67
2022-10-17T02:46:34.636Z,82.56
2022-10-17T02:47:34.627Z,81.34
2022-10-17T02:48:34.661Z,82.05
2022-10-17T02:49:34.613Z,81.54
2022-10-17T02:50:34.647Z,81.34
2022-10-17T02:51:34.588Z,81.34
2022-10-17T02:52:34.609Z,81.13
2022-10-17T02:53:34.592Z,82.56
2022-10-17T02:54:34.560Z,81.68
2022-10-17T02:55:34.544Z,81.78
2022-10-17T02:56:34.576Z,81.54
2022-10-17T02:57:34.533Z,81.78
2022-10-17T02:58:34.514Z,81.57
2022-10-17T03:00:34.501Z,80.96
2022-10-17T03:01:34.512Z,80.45
2022-10-17T03:02:34.526Z,78.91
2022-10-17T03:03:34.462Z,80.00
2022-10-17T03:04:34.446Z,80.00
2022-10-17T03:05:34.452Z,80.62
2022-10-17T03:06:34.449Z,80.82
2022-10-17T03:07:34.412Z,81.13
2022-10-17T03:08:34.507Z,81.16
2022-10-17T03:09:34.394Z,81.48
2022-10-17T03:10:34.382Z,80.82
2022-10-17T03:11:34.374Z,81.13
2022-10-17T03:12:34.374Z,81.23
2022-10-17T03:13:36.324Z,81.06
2022-10-17T03:14:35.436Z,80.04
2022-10-17T03:15:34.329Z,80.04
2022-10-17T03:16:34.321Z,81.02
2022-10-17T03:17:34.363Z,80.96
2022-10-17T03:18:34.311Z,80.72
2022-10-17T03:19:34.285Z,80.96
2022-10-17T03:20:34.290Z,79.80
2022-10-17T03:21:34.265Z,80.31
2022-10-17T03:22:34.360Z,79.49
2022-10-17T03:23:34.244Z,78.77
2022-10-17T03:24:34.260Z,80.17
2022-10-17T03:25:34.228Z,80.10
2022-10-17T03:26:34.355Z,79.28
2022-10-17T03:27:34.199Z,79.14
2022-10-17T03:28:34.307Z,79.66
2022-10-17T03:29:34.179Z,79.35
2022-10-17T03:30:34.166Z,79.04
2022-10-17T03:31:34.159Z,79.75
2022-10-17T03:32:34.161Z,80.62
2022-10-17T03:33:34.138Z,81.23
2022-10-17T03:34:34.137Z,80.41
2022-10-17T03:35:34.116Z,80.51
2022-10-17T03:36:34.101Z,80.78
2022-10-17T03:37:34.098Z,80.31
2022-10-17T03:38:34.163Z,81.13
2022-10-17T03:39:34.070Z,81.34
2022-10-17T03:40:34.099Z,80.86
2022-10-17T03:41:34.045Z,79.38
2022-10-17T03:42:34.035Z,78.77
2022-10-17T03:43:34.026Z,78.53
2022-10-17T03:44:34.071Z,80.21
2022-10-17T03:45:34.000Z,79.80
2022-10-17T03:46:34.003Z,79.55
2022-10-17T03:47:33.984Z,79.45
2022-10-17T03:48:33.984Z,79.55
2022-10-17T03:49:33.960Z,80.10
2022-10-17T03:50:34.007Z,80.10
2022-10-17T03:51:33.934Z,79.59
2022-10-17T03:52:33.940Z,79.04
2022-10-17T03:53:33.917Z,79.86
2022-10-17T03:54:33.910Z,80.72
2022-10-17T03:55:33.901Z,80.72
2022-10-17T03:56:33.931Z,79.90
2022-10-17T03:57:33.874Z,79.18
2022-10-17T03:58:33.878Z,80.62
2022-10-17T03:59:33.851Z,80.62
2022-10-17T04:00:33.840Z,79.93
2022-10-17T04:01:33.946Z,80.00
2022-10-17T04:02:33.828Z,79.93
2022-10-17T04:03:33.808Z,80.24
2022-10-17T04:04:34.227Z,80.10
2022-10-17T04:05:33.790Z,80.35
2022-10-17T04:06:33.779Z,79.77
2022-10-17T04:07:33.769Z,80.14
2022-10-17T04:08:33.761Z,79.36
2022-10-17T04:09:33.741Z,79.22
2022-10-17T04:10:33.842Z,78.36
2022-10-17T04:11:33.721Z,78.46
2022-10-17T04:12:33.741Z,77.84
2022-10-17T04:13:33.699Z,77.44
2022-10-17T04:14:33.756Z,77.03
2022-10-17T04:15:33.683Z,76.41
2022-10-17T04:16:33.674Z,76.82
2022-10-17T04:17:37.301Z,77.03
2022-10-17T04:18:33.649Z,76.37
2022-10-17T04:19:33.637Z,77.03
2022-10-17T04:20:33.691Z,76.99
2022-10-17T04:21:33.616Z,76.41
2022-10-17T04:22:33.618Z,77.23
2022-10-17T04:23:33.589Z,76.62
2022-10-17T04:24:33.583Z,76.82
2022-10-17T04:25:36.084Z,76.51
2022-10-17T04:26:33.703Z,75.69
2022-10-17T04:27:33.551Z,75.69
2022-10-17T04:28:33.741Z,76.51
2022-10-17T04:29:33.534Z,76.31
2022-10-17T04:30:33.514Z,77.13
2022-10-17T04:31:33.502Z,77.03
2022-10-17T04:32:33.533Z,75.69
2022-10-17T04:33:33.497Z,74.46
2022-10-17T04:34:33.473Z,74.57
2022-10-17T04:35:33.462Z,74.66
2022-10-17T04:36:33.453Z,75.28
2022-10-17T04:37:33.445Z,75.18
2022-10-17T04:38:33.500Z,75.38
2022-10-17T04:39:33.428Z,74.57
2022-10-17T04:40:33.405Z,74.66
2022-10-17T04:41:33.394Z,74.15
2022-10-17T04:42:33.389Z,73.95
2022-10-17T04:43:33.377Z,73.54
2022-10-17T04:44:33.419Z,74.66
2022-10-17T04:45:33.366Z,74.80
2022-10-17T04:46:33.342Z,75.11
2022-10-17T04:47:33.334Z,74.49
2022-10-17T04:48:33.325Z,74.60
2022-10-17T04:49:33.355Z,72.75
2022-10-17T04:50:33.364Z,72.96
2022-10-17T04:51:33.304Z,73.44
2022-10-17T04:52:33.282Z,75.11
2022-10-17T04:53:33.268Z,75.56
2022-10-17T04:54:33.259Z,76.24
2022-10-17T04:55:33.245Z,74.80
2022-10-17T04:56:33.298Z,75.21
2022-10-17T04:57:33.235Z,75.45
2022-10-17T04:58:33.215Z,75.56
2022-10-17T04:59:33.203Z,74.60
2022-10-17T05:00:33.307Z,75.32
2022-10-17T05:01:33.185Z,74.60
2022-10-17T05:02:33.274Z,74.70
2022-10-17T05:03:33.164Z,74.49
2022-10-17T05:04:33.154Z,74.70
2022-10-17T05:05:33.153Z,73.54
2022-10-17T05:06:33.134Z,72.92
2022-10-17T05:07:33.117Z,72.92
2022-10-17T05:08:33.162Z,73.02
2022-10-17T05:09:33.095Z,72.92
2022-10-17T05:10:33.095Z,72.31
2022-10-17T05:11:33.075Z,72.10
2022-10-17T05:12:33.067Z,72.61
2022-10-17T05:13:33.054Z,72.51
2022-10-17T05:14:33.107Z,72.10
2022-10-17T05:15:33.038Z,71.59
2022-10-17T05:16:33.046Z,72.44
2022-10-17T05:17:33.008Z,72.92
2022-10-17T05:18:32.998Z,72.61
2022-10-17T05:19:33.001Z,72.20
2022-10-17T05:20:33.012Z,71.69
2022-10-17T05:22:33.462Z,73.02
2022-10-17T05:23:32.949Z,72.82
2022-10-17T05:24:32.932Z,72.61
2022-10-17T05:25:32.931Z,72.41
2022-10-17T05:26:32.975Z,71.80
2022-10-17T05:27:32.901Z,71.69
2022-10-17T05:28:32.982Z,71.69
2022-10-17T05:29:32.879Z,72.10
2022-10-17T05:30:35.282Z,72.31
2022-10-17T05:31:32.867Z,72.00
2022-10-17T05:32:32.895Z,73.23
2022-10-17T05:33:32.839Z,72.82
2022-10-17T05:34:32.841Z,73.02
2022-10-17T05:35:32.825Z,71.62
2022-10-17T05:36:32.804Z,72.10
2022-10-17T05:37:32.799Z,71.90
2022-10-17T05:38:32.847Z,71.31
2022-10-17T05:39:32.981Z,71.59
2022-10-17T05:40:32.776Z,71.11
2022-10-17T05:41:32.752Z,71.31
2022-10-17T05:42:33.275Z,71.08
2022-10-17T05:43:32.734Z,70.67
2022-10-17T05:44:32.922Z,70.97
2022-10-17T05:45:32.709Z,71.18
2022-10-17T05:46:32.702Z,71.48
2022-10-17T05:47:33.071Z,71.48
2022-10-17T05:48:32.699Z,71.08
2022-10-17T05:49:43.912Z,71.18
2022-10-17T05:50:33.723Z,71.59
2022-10-17T05:51:32.732Z,71.59
2022-10-17T05:52:32.956Z,71.80
2022-10-17T05:53:32.629Z,72.10
2022-10-17T05:54:32.612Z,71.18
2022-10-17T05:55:32.600Z,71.18
2022-10-17T05:56:32.659Z,71.56
2022-10-17T05:57:32.578Z,70.84
2022-10-17T05:58:49.375Z,71.18
2022-10-17T05:59:33.558Z,71.08
2022-10-17T06:00:32.600Z,71.25
2022-10-17T06:01:32.619Z,70.87
2022-10-17T06:02:33.236Z,70.77
2022-10-17T06:03:32.528Z,71.18
2022-10-17T06:04:32.527Z,71.25
2022-10-17T06:05:32.492Z,71.25
2022-10-17T06:06:32.480Z,71.18
2022-10-17T06:07:32.471Z,71.48
2022-10-17T06:08:32.554Z,71.48
2022-10-17T06:09:32.573Z,70.32
2022-10-17T06:10:32.441Z,70.94
2022-10-17T06:11:32.430Z,71.15
2022-10-17T06:12:32.480Z,71.48
2022-10-17T06:13:32.409Z,71.59
2022-10-17T06:14:32.462Z,70.73
2022-10-17T06:15:32.387Z,71.45
2022-10-17T06:16:32.377Z,71.59
2022-10-17T06:17:32.362Z,70.67
2022-10-17T06:18:32.352Z,70.32
2022-10-17T06:19:32.361Z,71.15
2022-10-17T06:20:32.360Z,71.59
2022-10-17T06:21:32.327Z,73.02
2022-10-17T06:22:32.493Z,72.10
2022-10-17T06:23:32.298Z,71.66
2022-10-17T06:24:32.287Z,71.56
2022-10-17T06:25:32.286Z,72.07
2022-10-17T06:26:32.292Z,71.59
2022-10-17T06:27:32.255Z,71.45
2022-10-17T06:28:32.315Z,70.94
2022-10-17T06:29:32.237Z,71.59
2022-10-17T06:30:32.221Z,71.69
2022-10-17T06:31:32.235Z,71.48
2022-10-17T06:32:32.539Z,71.86
2022-10-17T06:33:32.193Z,71.56
2022-10-17T06:34:32.183Z,71.45
2022-10-17T06:35:32.172Z,71.35
2022-10-17T06:36:32.184Z,71.35
2022-10-17T06:37:35.462Z,70.84
2022-10-17T06:38:32.194Z,70.73
2022-10-17T06:39:32.129Z,69.71
2022-10-17T06:40:32.118Z,70.70
2022-10-17T06:41:32.104Z,71.04
2022-10-17T06:42:32.091Z,70.40
2022-10-17T06:43:32.096Z,70.50
2022-10-17T06:44:32.166Z,70.70
2022-10-17T06:45:32.059Z,71.01
2022-10-17T06:46:32.057Z,71.15
2022-10-17T06:47:32.400Z,71.62
2022-10-17T06:48:32.025Z,71.11
2022-10-17T06:49:32.034Z,71.01
2022-10-17T06:50:32.043Z,70.53
2022-10-17T06:51:32.004Z,71.42
2022-10-17T06:52:32.009Z,70.81
2022-10-17T06:53:31.976Z,70.29
2022-10-17T06:54:31.980Z,70.70
2022-10-17T06:55:31.961Z,71.04
2022-10-17T06:56:32.047Z,69.78
2022-10-17T06:57:32.237Z,69.98
2022-10-17T06:58:31.918Z,69.68
2022-10-17T06:59:31.966Z,69.06
2022-10-17T07:00:31.943Z,68.83
2022-10-17T07:01:31.885Z,68.62
2022-10-17T07:02:32.280Z,68.45
2022-10-17T07:03:31.866Z,68.24
2022-10-17T07:04:31.856Z,65.86
2022-10-17T07:05:31.845Z,65.72
2022-10-17T07:06:31.845Z,66.03
2022-10-17T07:07:32.021Z,65.42
2022-10-17T07:08:31.874Z,64.94
2022-10-17T07:09:31.799Z,65.31
2022-10-17T07:10:31.794Z,66.13
2022-10-17T07:11:31.780Z,66.13
2022-10-17T07:12:31.768Z,65.59
2022-10-17T07:13:35.534Z,64.80
2022-10-17T07:14:32.761Z,64.57
2022-10-17T07:15:31.741Z,64.43
2022-10-17T07:16:31.739Z,63.22
2022-10-17T07:17:31.938Z,63.16
2022-10-17T07:18:31.710Z,61.34
2022-10-17T07:19:31.696Z,61.18
2022-10-17T07:20:31.756Z,59.66
2022-10-17T07:21:35.226Z,59.63
2022-10-17T07:22:32.671Z,58.89
2022-10-17T07:23:31.647Z,56.73
2022-10-17T07:24:31.705Z,56.98
2022-10-17T07:25:33.275Z,56.54
2022-10-17T07:26:31.674Z,57.30
2022-10-17T07:27:31.924Z,56.67
2022-10-17T07:28:31.637Z,56.74
2022-10-17T07:29:31.585Z,55.10
2022-10-17T07:30:31.569Z,54.79
2022-10-17T07:31:31.560Z,55.60
2022-10-17T07:32:31.558Z,54.69
2022-10-17T07:33:31.549Z,56.69
2022-10-17T07:34:31.527Z,56.84
2022-10-17T07:35:31.528Z,55.90
2022-10-17T07:36:31.522Z,53.96
2022-10-17T07:37:32.028Z,52.76
2022-10-17T07:38:31.543Z,51.32
2022-10-17T07:39:31.472Z,55.10
2022-10-17T07:40:31.487Z,55.30
2022-10-17T07:41:31.450Z,53.88
2022-10-17T07:42:31.493Z,56.23
2022-10-17T07:43:31.432Z,56.13
2022-10-17T07:44:31.476Z,54.77
2022-10-17T07:45:31.418Z,55.80
2022-10-17T07:46:31.395Z,55.37
2022-10-17T07:47:31.799Z,57.45
2022-10-17T07:48:31.370Z,56.21
2022-10-17T07:49:31.374Z,55.40
2022-10-17T07:50:31.420Z,54.86
2022-10-17T07:51:31.343Z,54.86
2022-10-17T07:52:33.946Z,55.50
2022-10-17T07:53:31.320Z,56.95
2022-10-17T07:54:31.313Z,56.31
2022-10-17T07:55:31.308Z,55.07
2022-10-17T07:56:31.309Z,56.92
2022-10-17T07:57:31.281Z,57.20
2022-10-17T07:58:31.261Z,58.00
2022-10-17T07:59:31.250Z,55.27
2022-10-17T08:00:31.420Z,54.97
2022-10-17T08:01:31.229Z,54.28
2022-10-17T08:02:31.654Z,53.50
2022-10-17T08:03:31.233Z,53.93
2022-10-17T08:04:31.194Z,54.74
2022-10-17T08:05:31.192Z,55.43
2022-10-17T08:06:31.176Z,55.19
2022-10-17T08:07:31.269Z,54.41
2022-10-17T08:08:31.149Z,54.53
2022-10-17T08:09:31.163Z,54.61
2022-10-17T08:10:31.132Z,55.55
2022-10-17T08:11:31.169Z,55.63
2022-10-17T08:12:31.633Z,54.44
2022-10-17T08:13:31.110Z,53.80
2022-10-17T08:14:31.084Z,55.17
2022-10-17T08:15:32.054Z,55.02
2022-10-17T08:16:31.065Z,53.88
2022-10-17T08:17:31.052Z,53.72
2022-10-17T08:18:31.041Z,53.12
2022-10-17T08:19:31.047Z,53.55
2022-10-17T08:20:31.077Z,52.56
2022-10-17T08:21:31.008Z,52.69
2022-10-17T08:22:31.646Z,52.19
2022-10-17T08:23:30.988Z,52.64
2022-10-17T08:24:30.975Z,52.74
2022-10-17T08:25:30.977Z,51.81
2022-10-17T08:26:30.964Z,53.05
2022-10-17T08:27:30.942Z,54.71
2022-10-17T08:28:31.030Z,54.83
2022-10-17T08:29:30.939Z,53.72
2022-10-17T08:30:30.916Z,55.92
2022-10-17T08:31:30.898Z,54.68
2022-10-17T08:32:31.381Z,55.04
2022-10-17T08:33:30.888Z,51.40
2022-10-17T08:34:30.980Z,52.76
2022-10-17T08:35:30.865Z,52.67
2022-10-17T08:36:30.845Z,52.76
2022-10-17T08:37:31.356Z,53.45
2022-10-17T08:38:34.694Z,50.12
2022-10-17T08:39:30.816Z,50.50
2022-10-17T08:40:30.799Z,52.62
2022-10-17T08:41:30.800Z,51.20
2022-10-17T08:42:30.775Z,50.12
2022-10-17T08:43:35.196Z,52.64
2022-10-17T08:44:30.801Z,52.57
2022-10-17T08:45:30.739Z,51.26
2022-10-17T08:46:30.749Z,49.16
2022-10-17T08:47:31.104Z,52.09
2022-10-17T08:48:30.709Z,53.58
2022-10-17T08:49:30.702Z,52.94
2022-10-17T08:50:30.700Z,52.09
2022-10-17T08:51:30.688Z,51.29
2022-10-17T08:52:30.662Z,50.63
2022-10-17T08:53:30.653Z,52.24
2022-10-17T08:54:30.647Z,52.72
2022-10-17T08:57:54.396Z,53.83
2022-10-17T08:58:54.387Z,51.89
2022-10-17T08:59:54.396Z,49.62
2022-10-17T09:00:54.363Z,51.23
2022-10-17T09:01:56.588Z,52.42
2022-10-17T09:02:54.458Z,50.20
2022-10-17T09:03:54.328Z,50.75
2022-10-17T09:04:54.322Z,51.53
2022-10-17T09:05:54.305Z,54.96
2022-10-17T09:06:54.294Z,55.34
2022-10-17T09:07:54.288Z,51.32
2022-10-17T09:08:54.284Z,52.61
2022-10-17T09:09:54.345Z,51.89
2022-10-17T09:10:54.253Z,52.76
2022-10-17T09:11:54.236Z,55.26
2022-10-17T09:12:54.260Z,54.16
2022-10-17T09:13:54.217Z,50.10
2022-10-17T09:14:54.219Z,52.59
2022-10-17T09:15:54.250Z,54.33
2022-10-17T09:16:54.197Z,55.21
2022-10-17T09:17:54.178Z,53.32
2022-10-17T09:18:54.167Z,54.05
2022-10-17T09:19:54.161Z,53.67
2022-10-17T09:20:54.144Z,53.85
2022-10-17T09:21:54.132Z,56.15
2022-10-17T09:22:54.166Z,54.33
2022-10-17T09:23:59.674Z,53.70
2022-10-17T09:24:55.107Z,52.49
2022-10-17T09:25:54.088Z,53.80
2022-10-17T09:26:54.074Z,56.20
2022-10-17T09:27:54.066Z,54.58
2022-10-17T09:28:54.111Z,53.58
2022-10-17T09:29:54.059Z,55.49
2022-10-17T09:30:54.050Z,53.78
2022-10-17T09:31:54.063Z,54.18
2022-10-17T09:32:54.010Z,52.26
2022-10-17T09:33:55.045Z,52.97
2022-10-17T09:34:53.998Z,52.57
2022-10-17T09:35:53.999Z,50.96
2022-10-17T09:36:53.971Z,48.14
2022-10-17T09:37:54.058Z,46.68
2022-10-17T09:38:53.948Z,47.49
2022-10-17T09:39:53.939Z,51.99
2022-10-17T09:40:56.957Z,53.92
2022-10-17T09:41:53.927Z,51.68
2022-10-17T09:42:53.906Z,51.54
2022-10-17T09:43:53.896Z,48.30
2022-10-17T09:44:53.883Z,48.50
2022-10-17T09:45:53.871Z,48.10
2022-10-17T09:46:53.884Z,44.36
2022-10-17T09:47:53.887Z,45.79
2022-10-17T09:48:53.898Z,49.10
2022-10-17T09:49:53.829Z,47.54
2022-10-17T09:51:02.646Z,48.52
2022-10-17T09:51:54.821Z,49.40
2022-10-17T09:52:53.804Z,46.29
2022-10-17T09:53:53.784Z,47.04
2022-10-17T09:54:53.778Z,47.56
2022-10-17T09:55:53.775Z,45.95
2022-10-17T09:56:53.759Z,45.55
2022-10-17T09:57:53.756Z,46.46
2022-10-17T09:58:53.752Z,47.74
2022-10-17T09:59:53.717Z,46.31
2022-10-17T10:00:53.780Z,45.99
2022-10-17T10:01:53.697Z,46.69
2022-10-17T10:02:53.688Z,47.54
2022-10-17T10:03:53.713Z,44.73
2022-10-17T10:05:06.416Z,43.48
2022-10-17T10:05:54.654Z,41.25
2022-10-17T10:06:53.642Z,42.86
2022-10-17T10:07:53.631Z,43.18
2022-10-17T10:08:53.655Z,44.68
2022-10-17T10:09:53.612Z,46.45
2022-10-17T10:10:53.617Z,47.96
2022-10-17T10:11:53.589Z,49.05
2022-10-17T10:12:53.583Z,47.35
2022-10-17T10:13:53.570Z,46.55
2022-10-17T10:14:55.412Z,48.13
2022-10-17T10:15:53.545Z,45.10
2022-10-17T10:16:53.592Z,47.03
2022-10-17T10:17:53.523Z,46.45
2022-10-17T10:18:53.519Z,48.38
2022-10-17T10:19:53.526Z,46.09
2022-10-17T10:20:53.506Z,48.08
2022-10-17T10:21:53.488Z,45.53
2022-10-17T10:22:55.924Z,44.32
2022-10-17T10:23:53.457Z,41.83
2022-10-17T10:24:53.450Z,42.91
2022-10-17T10:25:53.453Z,43.19
2022-10-17T10:26:53.427Z,44.30
2022-10-17T10:27:53.432Z,45.72
2022-10-17T10:28:53.530Z,44.48
2022-10-17T10:29:53.396Z,47.38
2022-10-17T10:30:53.385Z,45.00
2022-10-17T10:31:53.377Z,45.22
2022-10-17T10:32:53.362Z,45.65
2022-10-17T10:33:56.787Z,47.38
2022-10-17T10:34:53.374Z,47.47
2022-10-17T10:35:53.357Z,48.23
2022-10-17T10:36:53.331Z,46.38
2022-10-17T10:37:53.309Z,44.82
2022-10-17T10:38:53.302Z,44.74
2022-10-17T10:39:53.292Z,47.71
2022-10-17T10:40:53.286Z,47.75
2022-10-17T10:41:53.286Z,49.23
2022-10-17T10:42:53.269Z,48.03
2022-10-17T10:43:53.255Z,46.62
2022-10-17T10:44:53.257Z,47.31
2022-10-17T10:45:53.239Z,47.20
2022-10-17T10:46:53.229Z,47.99
2022-10-17T10:47:53.199Z,46.16
2022-10-17T10:48:53.194Z,48.24
2022-10-17T10:49:53.197Z,47.74
2022-10-17T10:50:53.172Z,47.54
2022-10-17T10:51:53.193Z,47.94
2022-10-17T10:52:53.149Z,48.07
2022-10-17T10:53:53.137Z,49.24
2022-10-17T10:54:53.129Z,47.38
2022-10-17T10:55:53.114Z,48.01
2022-10-17T10:56:53.566Z,48.28
2022-10-17T10:57:53.089Z,52.29
2022-10-17T10:58:53.091Z,47.02
2022-10-17T10:59:53.072Z,48.61
2022-10-17T11:00:53.121Z,44.56
2022-10-17T11:01:53.048Z,48.76
2022-10-17T11:02:53.047Z,47.56
2022-10-17T11:03:53.030Z,49.16
2022-10-17T11:04:53.028Z,50.37
2022-10-17T11:05:53.003Z,49.94
2022-10-17T11:06:52.991Z,48.52
2022-10-17T11:07:53.016Z,47.72
2022-10-17T11:08:52.988Z,46.54
2022-10-17T11:09:52.961Z,49.04
2022-10-17T11:10:53.005Z,49.24
2022-10-17T11:11:52.941Z,48.07
2022-10-17T11:12:52.928Z,48.08
2022-10-17T11:13:54.127Z,50.29
2022-10-17T11:14:52.924Z,49.79
2022-10-17T11:15:52.920Z,50.29
2022-10-17T11:16:52.888Z,48.57
2022-10-17T11:17:52.879Z,50.94
2022-10-17T11:18:52.865Z,49.46
2022-10-17T11:19:52.861Z,48.71
2022-10-17T11:20:52.854Z,52.19
2022-10-17T11:21:52.856Z,48.99
2022-10-17T11:22:52.821Z,49.19
2022-10-17T11:23:52.845Z,50.51
2022-10-17T11:24:52.898Z,50.13
2022-10-17T11:25:52.792Z,50.94
2022-10-17T11:26:52.776Z,49.04
2022-10-17T11:27:52.853Z,49.96
2022-10-17T11:28:52.823Z,52.26
2022-10-17T11:29:52.742Z,51.56
2022-10-17T11:30:52.850Z,50.21
2022-10-17T11:31:52.719Z,51.12
2022-10-17T11:32:52.712Z,48.83
2022-10-17T11:33:52.700Z,51.14
2022-10-17T11:34:52.690Z,51.84
2022-10-17T11:35:52.687Z,49.16
2022-10-17T11:36:52.679Z,48.63
2022-10-17T11:37:52.655Z,49.33
2022-10-17T11:38:52.645Z,49.91
2022-10-17T11:39:52.681Z,48.81
2022-10-17T11:40:52.634Z,48.83
2022-10-17T11:41:55.198Z,52.22
2022-10-17T11:42:52.597Z,50.29
2022-10-17T11:43:52.591Z,50.34
2022-10-17T11:44:52.582Z,50.92
2022-10-17T11:45:52.575Z,51.82
2022-10-17T11:46:52.575Z,51.44
2022-10-17T11:47:52.546Z,50.13
2022-10-17T11:48:52.537Z,54.22
2022-10-17T11:49:52.873Z,52.17
2022-10-17T11:52:02.417Z,51.84
2022-10-17T11:52:57.253Z,51.51
2022-10-17T11:53:52.482Z,52.09
2022-10-17T11:54:52.479Z,51.89
2022-10-17T11:55:52.488Z,49.84
2022-10-17T11:56:52.450Z,50.71
2022-10-17T11:57:52.509Z,50.94
2022-10-17T11:58:52.431Z,51.92
2022-10-17T11:59:52.416Z,50.49
2022-10-17T12:00:52.405Z,51.54
2022-10-17T12:01:52.394Z,49.76
2022-10-17T12:02:52.383Z,51.77
2022-10-17T12:03:52.405Z,49.96
2022-10-17T12:04:52.405Z,53.14
2022-10-17T12:05:52.349Z,48.92
2022-10-17T12:06:52.343Z,48.64
2022-10-17T12:07:53.030Z,49.16
2022-10-17T12:08:52.331Z,51.07
2022-10-17T12:09:52.332Z,51.39
2022-10-17T12:10:52.296Z,52.69
2022-10-17T12:11:52.313Z,48.99
2022-10-17T12:12:52.271Z,52.22
2022-10-17T12:13:52.265Z,51.77
2022-10-17T12:14:52.262Z,51.57
2022-10-17T12:15:52.245Z,51.77
2022-10-17T12:16:52.251Z,51.44
2022-10-17T12:17:52.223Z,52.12
2022-10-17T12:18:52.209Z,50.02
2022-10-17T12:19:52.207Z,50.14
2022-10-17T12:20:52.184Z,52.04
2022-10-17T12:21:52.177Z,50.74
2022-10-17T12:22:52.169Z,51.92
2022-10-17T12:23:52.161Z,51.89
2022-10-17T12:24:52.158Z,50.07
2022-10-17T12:25:52.129Z,50.77
2022-10-17T12:26:56.348Z,52.00
2022-10-17T12:27:52.133Z,51.29
2022-10-17T12:28:52.151Z,49.87
2022-10-17T12:29:52.092Z,49.09
2022-10-17T12:30:52.086Z,50.29
2022-10-17T12:31:52.079Z,51.62
2022-10-17T12:33:04.116Z,51.27
2022-10-17T12:33:53.049Z,50.37
2022-10-17T12:34:52.036Z,49.77
2022-10-17T12:35:52.024Z,49.37
2022-10-17T12:36:52.023Z,49.19
2022-10-17T12:37:52.998Z,51.09
2022-10-17T12:38:51.995Z,50.24
2022-10-17T12:39:51.979Z,50.46
2022-10-17T12:40:52.026Z,51.49
2022-10-17T12:41:51.956Z,51.57
2022-10-17T12:42:51.955Z,52.12
2022-10-17T12:44:51.937Z,50.14
2022-10-17T12:45:51.924Z,50.62
2022-10-17T12:46:51.913Z,51.02
2022-10-17T12:47:51.892Z,50.20
2022-10-17T12:48:51.881Z,51.20
2022-10-17T12:49:54.535Z,51.12
2022-10-17T12:50:51.859Z,51.50
2022-10-17T12:51:51.848Z,50.12
2022-10-17T12:53:51.834Z,50.92
2022-10-17T12:55:00.486Z,51.52
2022-10-17T12:55:52.807Z,51.94
2022-10-17T12:56:51.795Z,51.42
2022-10-17T12:57:51.791Z,53.19
2022-10-17T12:58:51.787Z,51.97
2022-10-17T12:59:52.187Z,51.75
2022-10-17T13:01:11.834Z,50.79